地図

経路データ

SID SEASON NUMBER BASIN SUBBASIN NAME ISO_TIME NATURE LAT LON WMO_WIND WMO_PRES WMO_AGENCY TRACK_TYPE DIST2LAND LANDFALL IFLAG USA_AGENCY USA_ATCF_ID USA_LAT USA_LON USA_RECORD USA_STATUS USA_WIND USA_PRES USA_SSHS USA_R34_NE USA_R34_SE USA_R34_SW USA_R34_NW USA_R50_NE USA_R50_SE USA_R50_SW USA_R50_NW USA_R64_NE USA_R64_SE USA_R64_SW USA_R64_NW USA_POCI USA_ROCI USA_RMW USA_EYE TOKYO_LAT TOKYO_LON TOKYO_GRADE TOKYO_WIND TOKYO_PRES TOKYO_R50_DIR TOKYO_R50_LONG TOKYO_R50_SHORT TOKYO_R30_DIR TOKYO_R30_LONG TOKYO_R30_SHORT TOKYO_LAND CMA_LAT CMA_LON CMA_CAT CMA_WIND CMA_PRES HKO_LAT HKO_LON HKO_CAT HKO_WIND HKO_PRES NEWDELHI_LAT NEWDELHI_LON NEWDELHI_GRADE NEWDELHI_WIND NEWDELHI_PRES NEWDELHI_CI NEWDELHI_DP NEWDELHI_POCI REUNION_LAT REUNION_LON REUNION_TYPE REUNION_WIND REUNION_PRES REUNION_TNUM REUNION_CI REUNION_RMW REUNION_R34_NE REUNION_R34_SE REUNION_R34_SW REUNION_R34_NW REUNION_R50_NE REUNION_R50_SE REUNION_R50_SW REUNION_R50_NW REUNION_R64_NE REUNION_R64_SE REUNION_R64_SW REUNION_R64_NW BOM_LAT BOM_LON BOM_TYPE BOM_WIND BOM_PRES BOM_TNUM BOM_CI BOM_RMW BOM_R34_NE BOM_R34_SE BOM_R34_SW BOM_R34_NW BOM_R50_NE BOM_R50_SE BOM_R50_SW BOM_R50_NW BOM_R64_NE BOM_R64_SE BOM_R64_SW BOM_R64_NW BOM_ROCI BOM_POCI BOM_EYE BOM_POS_METHOD BOM_PRES_METHOD NADI_LAT NADI_LON NADI_CAT NADI_WIND NADI_PRES WELLINGTON_LAT WELLINGTON_LON WELLINGTON_WIND WELLINGTON_PRES DS824_LAT DS824_LON DS824_STAGE DS824_WIND DS824_PRES TD9636_LAT TD9636_LON TD9636_STAGE TD9636_WIND TD9636_PRES TD9635_LAT TD9635_LON TD9635_WIND TD9635_PRES TD9635_ROCI NEUMANN_LAT NEUMANN_LON NEUMANN_CLASS NEUMANN_WIND NEUMANN_PRES MLC_LAT MLC_LON MLC_CLASS MLC_WIND MLC_PRES USA_GUST BOM_GUST BOM_GUST_PER REUNION_GUST REUNION_GUST_PER USA_SEAHGT USA_SEARAD_NE USA_SEARAD_SE USA_SEARAD_SW USA_SEARAD_NW STORM_SPEED STORM_DIR
1981298N07083 1981 96 NI BB NOT_NAMED 1981-10-25 02:00:00 NR 6.50000 83.1000 main 143 129 __________O___ -1 6.50000 83.1000 0 12 305
1981298N07083 1981 96 NI BB NOT_NAMED 1981-10-25 03:00:00 NR 6.61685 82.9364 main 119 66 __________P___ -1 6.61685 82.9364 0 12 306
1981298N07083 1981 96 NI BB NOT_NAMED 1981-10-25 06:00:00 NR 6.97536 82.4356 main 55 22 O_________P___ jtwc_io IO011981 7.00000 82.4000 20 -1 6.96715 82.4474 0 12 306
1981298N07083 1981 96 NI BB NOT_NAMED 1981-10-25 09:00:00 NR 7.32727 81.9626 main 22 0 P_________P___ IO011981 7.34757 81.9551 22 -1 7.31712 81.9664 0 12 307
1981298N07083 1981 96 NI BB NOT_NAMED 1981-10-25 12:00:00 NR 7.68107 81.4999 main 0 0 O_________P___ jtwc_io IO011981 7.70000 81.5000 25 -1 7.66686 81.4998 0 12 308
1981298N07083 1981 96 NI BB NOT_NAMED 1981-10-25 14:00:00 NR 7.91938 81.1946 main 0 0 P_________O___ IO011981 7.93876 81.1891 25 -1 7.90000 81.2000 0 12 308
1981298N07083 1981 96 NI BB NOT_NAMED 1981-10-25 15:00:00 NR 8.03701 81.0445 main 0 0 P_________P___ IO011981 8.05749 81.0350 25 -1 8.01653 81.0541 0 11 309
1981298N07083 1981 96 NI BB NOT_NAMED 1981-10-25 18:00:00 NR 8.38137 80.6160 main 0 0 O_________P___ jtwc_io IO011981 8.40000 80.6000 25 -1 8.36273 80.6320 0 10 310
1981298N07083 1981 96 NI BB NOT_NAMED 1981-10-25 21:00:00 NR 8.70574 80.2366 main 0 0 P_________P___ IO011981 8.71490 80.2424 25 -1 8.69659 80.2308 0 10 310
1981298N07083 1981 96 NI BB NOT_NAMED 1981-10-26 00:00:00 NR 9.00434 79.8737 main 11 11 O_________P___ jtwc_io IO011981 9.00000 79.9000 25 -1 9.00868 79.8473 0 9 308
1981298N07083 1981 96 NI BB NOT_NAMED 1981-10-26 02:00:00 NR 9.19000 79.6179 main 47 47 P_________O___ IO011981 9.18000 79.6358 25 -1 9.20000 79.6000 0 9 306
1981298N07083 1981 96 NI BB NOT_NAMED 1981-10-26 03:00:00 NR 9.27665 79.4901 main 54 21 P_________P___ IO011981 9.26500 79.5000 25 -1 9.28831 79.4802 0 9 303
1981298N07083 1981 96 NI BB NOT_NAMED 1981-10-26 06:00:00 NR 9.51563 79.1167 main 21 0 O_________P___ jtwc_io IO011981 9.50000 79.1000 25 -1 9.53126 79.1334 0 8 302
1981298N07083 1981 96 NI BB NOT_NAMED 1981-10-26 09:00:00 NR 9.72551 78.7680 main 0 0 P_________P___ IO011981 9.69994 78.7424 27 -1 9.75108 78.7935 0 8 301
1981298N07083 1981 96 NI BB NOT_NAMED 1981-10-26 12:00:00 NR 9.93014 78.4225 main 0 0 O_________P___ jtwc_io IO011981 9.90000 78.4000 30 -1 9.96027 78.4449 0 8 302
1981298N07083 1981 96 NI BB NOT_NAMED 1981-10-26 14:00:00 NR 10.0821 78.1888 main 0 0 P_________O___ IO011981 10.0641 78.1775 30 -1 10.1000 78.2000 0 8 304
1981298N07083 1981 96 NI BB NOT_NAMED 1981-10-26 15:00:00 NR 10.1630 78.0685 main 0 0 P_________P___ IO011981 10.1499 78.0650 30 -1 10.1762 78.0720 0 9 303
1981298N07083 1981 96 NI AS NOT_NAMED 1981-10-26 18:00:00 NR 10.4026 77.6866 main 0 0 O_________P___ jtwc_io IO011981 10.4000 77.7000 30 -1 10.4052 77.6731 0 9 300
1981298N07083 1981 96 NI AS NOT_NAMED 1981-10-26 21:00:00 NR 10.6163 77.2621 main 0 0 P_________P___ IO011981 10.6000 77.2724 32 -1 10.6327 77.2519 0 10 296
1981298N07083 1981 96 NI AS NOT_NAMED 1981-10-27 00:00:00 NR 10.8278 76.8041 main 0 0 O_________P___ jtwc_io IO011981 10.8000 76.8000 35 0 10.8555 76.8082 0 10 296
1981298N07083 1981 96 NI AS NOT_NAMED 1981-10-27 02:00:00 NR 10.9821 76.4873 main 0 0 P_________O___ IO011981 10.9642 76.4746 36 -1 11.0000 76.5000 0 11 296
1981298N07083 1981 96 NI AS NOT_NAMED 1981-10-27 03:00:00 NR 11.0625 76.3236 main 0 0 P_________P___ IO011981 11.0500 76.3075 37 -1 11.0750 76.3397 0 11 296
1981298N07083 1981 96 NI AS NOT_NAMED 1981-10-27 06:00:00 NR 11.2982 75.8204 main 0 0 O_________P___ jtwc_io IO011981 11.3000 75.8000 40 0 11.2964 75.8409 0 11 294
1981298N07083 1981 96 NI AS NOT_NAMED 1981-10-27 09:00:00 NR 11.5101 75.3109 main 31 31 P_________P___ IO011981 11.5150 75.2924 42 -1 11.5052 75.3294 0 11 292
1981298N07083 1981 96 NI AS NOT_NAMED 1981-10-27 12:00:00 NR 11.6961 74.8121 main 55 55 O_________P___ jtwc_io IO011981 11.7000 74.8000 45 0 11.6922 74.8242 0 10 290
1981298N07083 1981 96 NI AS NOT_NAMED 1981-10-27 14:00:00 NR 11.8093 74.4933 main 79 79 P_________O___ IO011981 11.8187 74.4866 46 -1 11.8000 74.5000 0 10 290
1981298N07083 1981 96 NI AS NOT_NAMED 1981-10-27 15:00:00 NR 11.8601 74.3410 main 93 93 P_________P___ IO011981 11.8724 74.3350 47 -1 11.8478 74.3469 0 9 287
1981298N07083 1981 96 NI AS NOT_NAMED 1981-10-27 18:00:00 NR 11.9850 73.9019 main 127 127 O_________P___ jtwc_io IO011981 12.0000 73.9000 50 0 11.9700 73.9039 0 9 284
1981298N07083 1981 96 NI AS NOT_NAMED 1981-10-27 21:00:00 NR 12.0624 73.4900 main 161 161 P_________P___ IO011981 12.0574 73.4999 52 -1 12.0674 73.4802 0 8 280
1981298N07083 1981 96 NI AS NOT_NAMED 1981-10-28 00:00:00 NR 12.1247 73.0848 main 200 200 O_________P___ jtwc_io IO011981 12.1000 73.1000 55 0 12.1493 73.0696 0 8 280
1981298N07083 1981 96 NI AS NOT_NAMED 1981-10-28 02:00:00 NR 12.1821 72.8013 main 227 227 P_________O___ IO011981 12.1642 72.8025 56 -1 12.2000 72.8000 1 20 9 282
1981298N07083 1981 96 NI AS NOT_NAMED 1981-10-28 03:00:00 NR 12.2141 72.6548 main 237 237 P_________P___ IO011981 12.2000 72.6501 57 -1 12.2283 72.6596 1 20 9 282
1981298N07083 1981 96 NI AS NOT_NAMED 1981-10-28 06:00:00 NR 12.3039 72.2212 main 287 287 O_________P___ jtwc_io IO011981 12.3000 72.2000 60 0 12.3078 72.2424 1 21 8 280
1981298N07083 1981 96 NI AS NOT_NAMED 1981-10-28 09:00:00 NR 12.3657 71.8105 main 328 328 P_________P___ IO011981 12.3499 71.7849 60 -1 12.3815 71.8360 1 22 8 279
1981298N07083 1981 96 NI AS NOT_NAMED 1981-10-28 12:00:00 NR 12.4263 71.4234 main 371 371 O_________P___ jtwc_io IO011981 12.4000 71.4000 60 0 12.4526 71.4469 1 24 8 281
1981298N07083 1981 96 NI AS NOT_NAMED 1981-10-28 14:00:00 NR 12.4821 71.1767 main 390 390 P_________O___ IO011981 12.4641 71.1534 60 -1 12.5000 71.2000 1 25 7 284
1981298N07083 1981 96 NI AS NOT_NAMED 1981-10-28 15:00:00 NR 12.5130 71.0589 main 400 400 P_________P___ IO011981 12.5000 71.0350 60 -1 12.5261 71.0828 1 25 7 285
1981298N07083 1981 96 NI AS NOT_NAMED 1981-10-28 18:00:00 NR 12.6025 70.7242 main 440 440 O_________P___ jtwc_io IO011981 12.6000 70.7000 60 0 12.6051 70.7483 1 25 6 284
1981298N07083 1981 96 NI AS NOT_NAMED 1981-10-28 21:00:00 NR 12.6663 70.4148 main 463 463 P_________P___ IO011981 12.6499 70.3999 60 -1 12.6826 70.4297 1 25 6 282
1981298N07083 1981 96 NI AS NOT_NAMED 1981-10-29 00:00:00 NR 12.7278 70.1072 main 490 490 O_________P___ jtwc_io IO011981 12.7000 70.1000 60 0 12.7555 70.1145 1 25 6 283
1981298N07083 1981 96 NI AS NOT_NAMED 1981-10-29 02:00:00 NR 12.7821 69.8873 main 502 502 P_________O___ IO011981 12.7642 69.8746 60 -1 12.8000 69.9000 1 25 7 284
1981298N07083 1981 96 NI AS NOT_NAMED 1981-10-29 03:00:00 NR 12.8112 69.7733 main 512 512 P_________P___ IO011981 12.8000 69.7575 60 -1 12.8224 69.7891 1 25 7 284
1981298N07083 1981 96 NI AS NOT_NAMED 1981-10-29 06:00:00 NR 12.8926 69.4260 main 544 544 O_________P___ jtwc_io IO011981 12.9000 69.4000 60 0 12.8852 69.4521 1 26 7 282
1981298N07083 1981 96 NI AS NOT_NAMED 1981-10-29 09:00:00 NR 12.9557 69.0780 main 568 568 P_________P___ IO011981 12.9725 69.0500 55 -1 12.9390 69.1059 1 27 7 278
1981298N07083 1981 96 NI AS NOT_NAMED 1981-10-29 12:00:00 NR 12.9903 68.7237 main 608 608 O_________P___ jtwc_io IO011981 13.0000 68.7000 50 0 12.9806 68.7474 1 29 7 274
1981298N07083 1981 96 NI AS NOT_NAMED 1981-10-29 14:00:00 NR 12.9912 68.4887 main 628 628 P_________O___ IO011981 12.9824 68.4775 48 -1 13.0000 68.5000 1 30 7 268
1981298N07083 1981 96 NI AS NOT_NAMED 1981-10-29 15:00:00 NR 12.9773 68.3593 main 638 638 P_________P___ IO011981 12.9649 68.3650 47 -1 12.9896 68.3536 1 30 8 262
1981298N07083 1981 96 NI AS NOT_NAMED 1981-10-29 18:00:00 NR 12.9201 67.9476 main 692 692 O_________P___ jtwc_io IO011981 12.9000 68.0000 45 0 12.9403 67.8951 1 31 9 261
1981298N07083 1981 96 NI AS NOT_NAMED 1981-10-29 21:00:00 NR 12.8462 67.4897 main 737 737 P_________P___ IO011981 12.7901 67.5273 42 -1 12.9023 67.4521 1 32 8 266
1981298N07083 1981 96 NI AS NOT_NAMED 1981-10-30 00:00:00 NR 12.8628 67.0902 main 773 773 O_________P___ jtwc_io IO011981 12.8000 67.1000 40 0 12.9256 67.0804 1 34 7 284
1981298N07083 1981 96 NI AS NOT_NAMED 1981-10-30 02:00:00 NR 12.9850 66.9001 main 788 788 P_________O___ IO011981 12.9700 66.9002 40 -1 13.0000 66.9000 2 35 7 311
1981298N07083 1981 96 NI AS NOT_NAMED 1981-10-30 03:00:00 NR 13.0797 66.8327 main 794 785 P_________P___ IO011981 13.0899 66.8252 40 -1 13.0696 66.8403 2 35 7 339
1981298N07083 1981 96 NI AS NOT_NAMED 1981-10-30 06:00:00 NR 13.4278 66.7233 main 789 770 O_________P___ jtwc_io IO011981 13.5000 66.7000 XX 40 -5 13.3556 66.7466 2 38 7 352
1981298N07083 1981 96 NI AS NOT_NAMED 1981-10-30 09:00:00 NR 13.7868 66.7259 main 770 747 P_________P___ IO011981 13.8500 66.6974 XX 42 -5 13.7236 66.7544 2 40 7 7
1981298N07083 1981 96 NI AS NOT_NAMED 1981-10-30 12:00:00 NR 14.1649 66.8148 main 743 725 O_________P___ jtwc_io IO011981 14.2000 66.8000 XX 45 -5 14.1298 66.8295 2 43 8 15
1981298N07083 1981 96 NI AS NOT_NAMED 1981-10-30 14:00:00 NR 14.4194 66.8948 main 725 721 P_________O___ IO011981 14.4388 66.8896 XX 46 -5 14.4000 66.9000 2 45 8 17
1981298N07083 1981 96 NI AS NOT_NAMED 1981-10-30 15:00:00 NR 14.5347 66.9379 main 721 687 P_________P___ IO011981 14.5575 66.9424 XX 47 -5 14.5118 66.9333 2 45 7 22
1981298N07083 1981 96 NI AS NOT_NAMED 1981-10-30 18:00:00 NR 14.8725 67.0823 main 687 668 O_________P___ jtwc_io IO011981 14.9000 67.1000 XX 50 -5 14.8451 67.0646 2 48 7 23
1981298N07083 1981 96 NI AS NOT_NAMED 1981-10-30 21:00:00 NR 15.1850 67.2181 main 668 651 P_________P___ IO011981 15.1850 67.2225 XX 52 -5 15.1850 67.2136 2 50 7 19
1981298N07083 1981 96 NI AS NOT_NAMED 1981-10-31 00:00:00 NR 15.5220 67.3216 main 651 635 O_________P___ jtwc_io IO011981 15.5000 67.3000 XX 55 -5 15.5439 67.3431 2 53 7 13
1981298N07083 1981 96 NI AS NOT_NAMED 1981-10-31 02:00:00 NR 15.7881 67.3606 main 635 633 P_________O___ IO011981 15.7763 67.3213 XX 56 -5 15.8000 67.4000 4 55 8 4
1981298N07083 1981 96 NI AS NOT_NAMED 1981-10-31 03:00:00 NR 15.9320 67.3593 main 633 605 P_________P___ IO011981 15.9275 67.3225 XX 57 -5 15.9366 67.3961 4 55 9 356
1981298N07083 1981 96 NI AS NOT_NAMED 1981-10-31 06:00:00 NR 16.3842 67.3205 main 605 568 O_________P___ jtwc_io IO011981 16.4000 67.3000 XX 60 -5 16.3684 67.3411 4 56 9 353
1981298N07083 1981 96 NI AS NOT_NAMED 1981-10-31 09:00:00 NR 16.8367 67.2473 main 575 529 P_________P___ IO011981 16.8500 67.2352 XX 60 -5 16.8235 67.2595 4 57 9 353
1981298N07083 1981 96 NI AS NOT_NAMED 1981-10-31 12:00:00 NR 17.2947 67.2006 main 529 502 O_________P___ jtwc_io IO011981 17.3000 67.2000 XX 60 -5 17.2895 67.2011 4 59 9 357
1981298N07083 1981 96 NI AS NOT_NAMED 1981-10-31 14:00:00 NR 17.6000 67.2160 main 502 493 P_________O___ IO011981 17.6000 67.2321 XX 60 -5 17.6000 67.2000 4 60 9 6
1981298N07083 1981 96 NI AS NOT_NAMED 1981-10-31 15:00:00 NR 17.7506 67.2440 main 484 437 P_________P___ IO011981 17.7500 67.2625 XX 60 -5 17.7512 67.2255 4 60 9 14
1981298N07083 1981 96 NI AS NOT_NAMED 1981-10-31 18:00:00 NR 18.2027 67.3755 main 437 397 O_________P___ jtwc_io IO011981 18.2000 67.4000 XX 60 -5 18.2055 67.3509 4 60 10 18
1981298N07083 1981 96 NI AS NOT_NAMED 1981-10-31 21:00:00 NR 18.6540 67.5587 main 382 335 P_________P___ IO011981 18.6500 67.5850 XX 60 -5 18.6580 67.5325 4 60 10 23
1981298N07083 1981 96 NI AS NOT_NAMED 1981-11-01 00:00:00 NR 19.1029 67.7741 main 335 305 O_________P___ jtwc_io IO011981 19.1000 67.8000 XX 60 -5 19.1057 67.7482 4 60 10 24
1981298N07083 1981 96 NI AS NOT_NAMED 1981-11-01 02:00:00 NR 19.4027 67.9167 main 305 289 P_________O___ IO011981 19.4054 67.9334 XX 58 -5 19.4000 67.9000 4 60 10 24
1981298N07083 1981 96 NI AS NOT_NAMED 1981-11-01 03:00:00 NR 19.5524 67.9818 main 282 236 P_________P___ IO011981 19.5575 68.0001 XX 57 -5 19.5474 67.9635 4 59 10 23
1981298N07083 1981 96 NI AS NOT_NAMED 1981-11-01 06:00:00 NR 19.9926 68.1815 main 236 190 O_________P___ jtwc_io IO011981 20.0000 68.2000 XX 55 -5 19.9852 68.1630 4 56 9 24
1981298N07083 1981 96 NI AS NOT_NAMED 1981-11-01 09:00:00 NR 20.4107 68.3829 main 190 144 P_________P___ IO011981 20.4074 68.3852 XX 52 -5 20.4139 68.3806 4 54 9 26
1981298N07083 1981 96 NI AS NOT_NAMED 1981-11-01 12:00:00 NR 20.8153 68.6112 main 144 106 O_________P___ jtwc_io IO011981 20.8000 68.6000 XX 50 -5 20.8305 68.6223 4 51 9 29
1981298N07083 1981 96 NI AS NOT_NAMED 1981-11-01 14:00:00 NR 21.0833 68.7894 main 106 91 P_________O___ IO011981 21.0666 68.7788 XX 48 -5 21.1000 68.8000 4 50 10 33
1981298N07083 1981 96 NI AS NOT_NAMED 1981-11-01 15:00:00 NR 21.2160 68.8860 main 91 38 P_________P___ IO011981 21.2000 68.8776 XX 47 -5 21.2320 68.8944 4 48 10 36
1981298N07083 1981 96 NI AS NOT_NAMED 1981-11-01 18:00:00 NR 21.6102 69.1986 main 38 0 O_________P___ jtwc_io IO011981 21.6000 69.2000 XX 45 -5 21.6178 69.1976 4 45 10 38
1981298N07083 1981 96 NI AS NOT_NAMED 1981-11-01 21:00:00 NR 21.9952 69.5326 main 0 0 P_________P___ IO011981 22.0001 69.5446 XX 40 -5 21.9918 69.5246 4 41 10 40
1981298N07083 1981 96 NI AS NOT_NAMED 1981-11-02 00:00:00 NR 22.3721 69.8781 main 0 0 O_________P___ jtwc_io IO011981 22.4000 69.9000 XX 35 -5 22.3581 69.8671 4 37 10 41
1981298N07083 1981 96 NI AS NOT_NAMED 1981-11-02 02:00:00 NR 22.6000 70.1000 main 15 __________O___ IO011981 XX -5 22.6000 70.1000 2 35 9 42

IBTrACS Databaseについて

本データベースは、米国NOAAが公開する1842年以降の世界の熱帯低気圧のベストトラックデータアーカイブInternational Best Track Archive for Climate Stewardship (IBTrACS)を、ウェブで閲覧しやすい形式に変換したものです。

最終更新日:2021-11-26